Edwards Air Force Base Edwards US
ICAO: KEDW
IATA: EDW
Category: Large
Scheduled Services: No

Elevation: 2312 ft
TransAlt. 18000 ft.

Airport Communications:
SPORT APP/DEP:132.75
ATIS:26.99
GND:121.8
NASA FLT OPS:135.825
PMSV METRO:34.24
COMD POST:30.4
PTD:37.22
TWR:120.7

KEDW Zoom In..

If you have problems with the map follow the link
https://www.worldairports.se/pages/airport.php?
ICAO=KEDW

Runways:

(A) RW 04L length 12000 ft width 200 ft
---- / hdg 43

(B) RW 04R length 15024 ft width 300 ft
---- / hdg 43

(C) RW 22L length 15024 ft width 300 ft
ILS 110.10 / hdg 223

(D) RW 22R length 12000 ft width 200 ft
---- / hdg 223

Location; KEDW
Day. 19 / Time. 15.58 Zulu
* Altimeter: 30.29
* Temperature: -02° c. -28.4°f.
* Wind from: 340° Speed 03 kn.
Dewpoint: -05° c.
Visibility: 10 Statute Miles.
Clouds: Clear (automated report).

KEDW 191558Z AUTO 34003KT 10SM CLR M02/M05 A3029 RMK AO2 SLP270 T10201055 $


Wind From 340°
Speed 03 kn.

 
 
jpsmedia worldairports.se 2020   terms of use